Time;durP1;ratioP1;P1;durP2;ratioP2;P2;SDS_P1;SDS_P2;PMS_P1;PMS_P2;Temp;Humidity;BMP_temperature;BMP_pressure;BME280_temperature;BME280_humidity;BME280_pressure;Samples;Min_cycle;Max_cycle;Signal;HPM_P1;HPM_P2
2021/11/05 00:00:07;;;;;;;6.33;5.70;;;8.80;87.90;;;;;;4905601;29;20445;-42
2021/11/05 00:02:34;;;;;;;6.17;5.30;;;8.80;87.90;;;;;;4908274;29;20533;-42
2021/11/05 00:05:01;;;;;;;7.97;4.93;;;8.80;87.90;;;;;;4909211;29;20722;-42
2021/11/05 00:07:28;;;;;;;5.57;5.07;;;8.80;87.70;;;;;;4906565;29;20453;-42
2021/11/05 00:09:54;;;;;;;10.13;5.67;;;8.80;87.80;;;;;;4891690;29;20458;-42
2021/11/05 00:12:21;;;;;;;9.23;5.07;;;8.90;87.70;;;;;;4906100;29;20466;-42
2021/11/05 00:14:48;;;;;;;7.73;5.03;;;8.90;87.50;;;;;;4906312;29;20458;-42
2021/11/05 00:17:15;;;;;;;9.33;6.17;;;8.90;87.60;;;;;;4894721;29;20458;-42
2021/11/05 00:19:41;;;;;;;8.13;5.10;;;8.90;87.10;;;;;;4907336;29;20442;-42
2021/11/05 00:22:08;;;;;;;9.37;5.07;;;8.90;87.10;;;;;;4893616;29;20456;-42
2021/11/05 00:24:35;;;;;;;6.00;5.17;;;8.90;87.10;;;;;;4907763;29;20857;-42
2021/11/05 00:27:02;;;;;;;7.07;5.70;;;8.90;87.00;;;;;;4907235;29;20464;-42
2021/11/05 00:29:28;;;;;;;5.50;4.70;;;8.80;87.20;;;;;;4889405;29;20454;-42
2021/11/05 00:31:55;;;;;;;8.40;5.37;;;8.90;87.20;;;;;;4916202;29;20702;-42
2021/11/05 00:34:22;;;;;;;5.40;4.43;;;8.90;87.20;;;;;;4906936;29;20465;-42
2021/11/05 00:36:48;;;;;;;5.23;4.43;;;8.90;87.20;;;;;;4890825;29;20473;-42
2021/11/05 00:39:16;;;;;;;5.77;4.20;;;8.90;87.20;;;;;;4908428;29;20465;-42
2021/11/05 00:41:43;;;;;;;5.17;4.40;;;8.80;87.30;;;;;;4907337;29;20470;-42
2021/11/05 00:44:09;;;;;;;5.33;4.30;;;8.90;87.20;;;;;;4906060;29;20489;-42
2021/11/05 00:46:36;;;;;;;6.17;4.20;;;8.90;87.10;;;;;;4905203;29;20967;-41
2021/11/05 00:49:03;;;;;;;6.23;3.90;;;8.90;87.10;;;;;;4890820;29;21044;-41
2021/11/05 00:51:30;;;;;;;5.30;4.10;;;8.90;86.70;;;;;;4891870;29;20552;-41
2021/11/05 00:53:57;;;;;;;6.70;4.40;;;8.90;86.60;;;;;;4891868;29;20461;-40
2021/11/05 00:56:25;;;;;;;5.43;3.80;;;8.90;86.60;;;;;;4891576;29;20477;-40
2021/11/05 00:58:52;;;;;;;4.70;3.90;;;8.90;86.80;;;;;;4883015;29;20462;-40
2021/11/05 01:01:19;;;;;;;4.33;3.60;;;8.80;87.10;;;;;;4892083;29;20454;-40
2021/11/05 01:03:45;;;;;;;6.70;4.30;;;8.90;87.20;;;;;;4890574;29;20821;-40
2021/11/05 01:06:17;;;;;;;5.40;4.00;;;8.90;87.10;;;;;;4888530;29;20560;-41
2021/11/05 01:08:45;;;;;;;5.73;4.77;;;8.90;87.20;;;;;;4888296;29;20993;-42
2021/11/05 01:11:12;;;;;;;6.23;3.63;;;8.90;86.90;;;;;;4864670;29;20553;-43
2021/11/05 01:13:40;;;;;;;5.63;4.27;;;8.90;86.90;;;;;;4873460;29;20855;-43
2021/11/05 01:16:07;;;;;;;8.23;4.50;;;8.90;86.80;;;;;;4887256;29;20914;-42
2021/11/05 01:18:34;;;;;;;6.60;4.33;;;8.80;87.00;;;;;;4887448;29;20487;-41
2021/11/05 01:21:01;;;;;;;7.10;4.63;;;8.80;87.10;;;;;;4883642;29;20466;-41
2021/11/05 01:23:28;;;;;;;7.10;5.90;;;8.80;87.00;;;;;;4887495;29;20480;-41
2021/11/05 01:25:55;;;;;;;6.90;4.13;;;8.80;87.10;;;;;;4889879;29;20489;-41
2021/11/05 01:28:22;;;;;;;6.63;4.50;;;8.80;86.90;;;;;;4875945;29;20556;-41
2021/11/05 01:30:51;;;;;;;6.30;4.63;;;8.80;86.80;;;;;;4891052;29;20450;-40
2021/11/05 01:33:19;;;;;;;5.13;4.23;;;8.80;86.50;;;;;;4874174;29;22861;-40
2021/11/05 01:35:46;;;;;;;6.03;4.17;;;8.80;86.10;;;;;;4889320;29;20510;-41
2021/11/05 01:38:12;;;;;;;5.57;4.10;;;8.80;86.20;;;;;;4891218;29;20653;-40
2021/11/05 01:40:42;;;;;;;6.37;4.00;;;8.70;86.40;;;;;;4891361;29;20988;-40
2021/11/05 01:43:11;;;;;;;5.50;4.70;;;8.70;86.20;;;;;;4875166;29;20470;-41
2021/11/05 01:45:40;;;;;;;4.10;3.20;;;8.70;86.20;;;;;;4889828;29;20489;-40
2021/11/05 01:48:07;;;;;;;5.47;3.80;;;8.60;86.40;;;;;;4890688;29;20799;-41
2021/11/05 01:50:34;;;;;;;5.97;4.17;;;8.60;86.60;;;;;;4872629;29;20985;-40
2021/11/05 01:53:02;;;;;;;7.03;4.40;;;8.60;86.60;;;;;;4888682;29;21175;-41
2021/11/05 01:55:29;;;;;;;6.80;4.90;;;8.60;86.50;;;;;;4889389;29;20494;-41
2021/11/05 01:57:56;;;;;;;4.67;4.23;;;8.50;86.50;;;;;;4887580;29;21004;-40
2021/11/05 02:00:26;;;;;;;5.93;4.30;;;8.50;86.60;;;;;;4888224;29;20570;-40
2021/11/05 02:02:53;;;;;;;6.63;3.60;;;8.50;86.50;;;;;;4889100;29;20489;-40
2021/11/05 02:05:21;;;;;;;5.23;3.90;;;8.50;86.20;;;;;;4882923;29;20496;-41
2021/11/05 02:07:53;;;;;;;5.60;4.50;;;8.50;86.10;;;;;;4901283;29;20457;-41
2021/11/05 02:10:22;;;;;;;5.90;4.20;;;8.40;86.20;;;;;;4903378;29;20454;-42
2021/11/05 02:12:50;;;;;;;6.10;5.07;;;8.40;86.50;;;;;;4901760;29;20532;-42
2021/11/05 02:15:17;;;;;;;5.30;4.10;;;8.30;86.60;;;;;;4878090;29;20465;-42
2021/11/05 02:17:46;;;;;;;5.80;4.93;;;8.30;86.60;;;;;;4888934;29;20469;-43
2021/11/05 02:20:17;;;;;;;6.10;4.13;;;8.30;86.60;;;;;;4889802;29;20458;-42
2021/11/05 02:22:44;;;;;;;5.13;4.07;;;8.30;86.50;;;;;;4889935;29;20468;-42
2021/11/05 02:25:11;;;;;;;6.40;4.40;;;8.30;86.50;;;;;;4872956;29;20492;-42
2021/11/05 02:27:38;;;;;;;5.93;4.63;;;8.30;86.50;;;;;;4890073;29;20454;-42
2021/11/05 02:30:08;;;;;;;7.27;5.23;;;8.20;86.90;;;;;;4890245;29;20810;-42
2021/11/05 02:32:41;;;;;;;5.70;4.47;;;8.20;87.00;;;;;;4895985;29;20470;-42
2021/11/05 02:35:11;;;;;;;6.00;4.60;;;8.20;87.10;;;;;;4914497;29;20459;-42
2021/11/05 02:37:38;;;;;;;6.10;4.50;;;8.10;87.20;;;;;;4904560;29;20466;-42
2021/11/05 02:40:07;;;;;;;5.83;5.23;;;8.10;87.30;;;;;;4904350;29;20570;-42
2021/11/05 02:42:34;;;;;;;7.47;5.67;;;8.10;87.30;;;;;;4896185;29;20848;-43
2021/11/05 02:45:03;;;;;;;6.80;5.90;;;8.10;87.30;;;;;;4894399;29;21005;-43
2021/11/05 02:47:30;;;;;;;8.40;5.00;;;8.10;87.20;;;;;;4865473;29;20472;-43
2021/11/05 02:50:02;;;;;;;6.23;5.37;;;8.10;87.10;;;;;;4893665;29;20672;-43
2021/11/05 02:52:29;;;;;;;8.30;5.80;;;8.10;87.00;;;;;;4878472;29;20472;-41
2021/11/05 02:54:56;;;;;;;6.70;5.60;;;8.00;87.00;;;;;;4892590;29;20798;-41
2021/11/05 02:57:22;;;;;;;8.10;5.37;;;8.00;86.90;;;;;;4904721;29;20548;-42
2021/11/05 02:59:49;;;;;;;7.13;5.10;;;8.00;87.00;;;;;;4907116;29;20464;-42
2021/11/05 03:02:22;;;;;;;5.77;4.80;;;8.00;86.90;;;;;;4905775;29;20529;-42
2021/11/05 03:04:49;;;;;;;7.87;4.77;;;8.00;86.90;;;;;;4890554;29;20507;-42
2021/11/05 03:07:16;;;;;;;5.73;4.77;;;7.90;87.00;;;;;;4904968;29;20477;-42
2021/11/05 03:09:42;;;;;;;5.27;4.43;;;7.90;87.00;;;;;;4906309;29;20460;-42
2021/11/05 03:12:11;;;;;;;6.20;4.63;;;7.90;87.00;;;;;;4904393;29;20453;-42
2021/11/05 03:14:39;;;;;;;9.50;5.40;;;7.90;87.00;;;;;;4893689;29;20464;-42
2021/11/05 03:17:10;;;;;;;6.50;5.33;;;7.90;86.90;;;;;;4891756;29;20497;-43
2021/11/05 03:19:38;;;;;;;5.53;4.20;;;7.80;87.00;;;;;;4873068;29;20465;-43
2021/11/05 03:22:05;;;;;;;6.00;4.87;;;7.80;87.00;;;;;;4892624;29;20900;-43
2021/11/05 03:24:32;;;;;;;5.00;3.77;;;7.80;86.90;;;;;;4888049;29;20493;-42
2021/11/05 03:26:59;;;;;;;7.13;4.93;;;7.80;86.90;;;;;;4893096;29;20842;-42
2021/11/05 03:29:27;;;;;;;6.37;4.60;;;7.80;86.90;;;;;;4889280;29;20477;-43
2021/11/05 03:31:54;;;;;;;6.37;4.63;;;7.80;86.80;;;;;;4891289;29;20470;-43
2021/11/05 03:34:20;;;;;;;8.03;5.90;;;7.80;86.80;;;;;;4894271;29;20470;-41
2021/11/05 03:36:47;;;;;;;7.80;5.27;;;7.80;86.80;;;;;;4905217;29;20521;-41
2021/11/05 03:39:14;;;;;;;7.37;5.70;;;7.80;86.80;;;;;;4908261;29;20465;-41
2021/11/05 03:41:41;;;;;;;7.27;4.63;;;7.70;87.00;;;;;;4908164;29;20465;-42
2021/11/05 03:44:08;;;;;;;6.47;5.00;;;7.70;87.00;;;;;;4909761;29;20484;-42
2021/11/05 03:46:34;;;;;;;13.07;8.87;;;7.70;87.00;;;;;;4890765;29;20504;-42
2021/11/05 03:49:03;;;;;;;27.60;18.20;;;7.70;86.90;;;;;;4873596;29;20504;-41
2021/11/05 03:51:30;;;;;;;15.37;11.67;;;7.70;86.90;;;;;;4888981;29;20469;-41
2021/11/05 03:53:57;;;;;;;9.60;7.00;;;7.70;86.90;;;;;;4875320;29;20462;-42
2021/11/05 03:56:25;;;;;;;6.37;5.40;;;7.60;86.90;;;;;;4875193;29;20497;-41
2021/11/05 03:58:52;;;;;;;6.50;4.30;;;7.60;86.90;;;;;;4888767;29;20496;-41
2021/11/05 04:01:21;;;;;;;6.97;5.50;;;7.60;86.90;;;;;;4875172;29;20485;-43
2021/11/05 04:03:49;;;;;;;6.70;5.10;;;7.60;86.80;;;;;;4888400;29;20465;-43
2021/11/05 04:06:18;;;;;;;5.47;4.67;;;7.50;86.80;;;;;;4891723;29;20505;-43
2021/11/05 04:08:45;;;;;;;7.63;5.90;;;7.50;86.90;;;;;;4886758;29;20481;-43
2021/11/05 04:11:12;;;;;;;6.40;4.80;;;7.50;87.00;;;;;;4890493;29;21005;-44
2021/11/05 04:13:42;;;;;;;5.70;5.20;;;7.50;86.90;;;;;;4875502;29;20493;-42
2021/11/05 04:16:09;;;;;;;5.67;4.90;;;7.50;86.90;;;;;;4905494;29;20836;-42
2021/11/05 04:18:36;;;;;;;7.67;5.80;;;7.50;86.90;;;;;;4904456;29;20560;-42
2021/11/05 04:21:04;;;;;;;5.57;4.47;;;7.50;86.80;;;;;;4903782;29;20505;-42
2021/11/05 04:23:31;;;;;;;8.00;4.87;;;7.40;86.90;;;;;;4890501;29;20469;-42
2021/11/05 04:25:58;;;;;;;8.00;4.20;;;7.40;86.90;;;;;;4887851;29;20490;-42
2021/11/05 04:28:25;;;;;;;7.07;4.87;;;7.40;87.00;;;;;;4890620;29;20468;-41
2021/11/05 04:30:52;;;;;;;7.20;4.87;;;7.40;86.70;;;;;;4890502;29;20462;-41
2021/11/05 04:33:19;;;;;;;7.10;5.27;;;7.40;86.60;;;;;;4873829;29;20474;-43
2021/11/05 04:35:46;;;;;;;5.47;4.30;;;7.40;86.60;;;;;;4888921;29;20482;-42
2021/11/05 04:38:13;;;;;;;6.60;4.50;;;7.30;86.60;;;;;;4889781;29;20493;-42
2021/11/05 04:40:40;;;;;;;5.70;4.30;;;7.30;86.60;;;;;;4891700;29;21028;-42
2021/11/05 04:43:07;;;;;;;5.83;5.20;;;7.20;86.80;;;;;;4889188;29;20505;-42
2021/11/05 04:45:34;;;;;;;6.97;5.27;;;7.20;86.70;;;;;;4891992;29;21026;-42
2021/11/05 04:48:01;;;;;;;6.73;5.10;;;7.20;86.90;;;;;;4889571;29;20838;-43
2021/11/05 04:50:28;;;;;;;6.03;4.63;;;7.20;86.80;;;;;;4873935;29;20470;-43
2021/11/05 04:52:55;;;;;;;6.70;4.80;;;7.20;86.60;;;;;;4889547;29;20461;-42
2021/11/05 04:55:23;;;;;;;7.00;4.90;;;7.20;86.60;;;;;;4888860;29;20564;-42
2021/11/05 04:57:50;;;;;;;9.17;5.20;;;7.20;86.40;;;;;;4889089;29;20488;-42
2021/11/05 05:00:20;;;;;;;8.87;5.77;;;7.20;86.30;;;;;;4890375;29;20499;-42
2021/11/05 05:02:48;;;;;;;5.70;4.17;;;7.10;86.50;;;;;;4887526;29;20469;-42
2021/11/05 05:05:16;;;;;;;7.80;5.93;;;7.10;86.70;;;;;;4888498;29;20498;-41
2021/11/05 05:07:43;;;;;;;7.40;4.83;;;7.10;86.80;;;;;;4871568;29;20469;-41
2021/11/05 05:10:11;;;;;;;9.40;6.83;;;7.00;86.80;;;;;;4888644;29;20688;-41
2021/11/05 05:12:38;;;;;;;11.60;6.80;;;7.00;87.00;;;;;;4889118;29;20837;-41
2021/11/05 05:15:07;;;;;;;40.37;21.73;;;7.00;87.10;;;;;;4888243;29;20514;-41
2021/11/05 05:17:34;;;;;;;22.97;14.83;;;7.00;87.10;;;;;;4889023;29;21092;-41
2021/11/05 05:20:04;;;;;;;13.33;9.70;;;7.00;87.00;;;;;;4891132;29;20458;-41
2021/11/05 05:22:30;;;;;;;11.40;8.13;;;7.00;87.00;;;;;;4887888;29;20624;-41
2021/11/05 05:24:58;;;;;;;10.13;6.97;;;7.00;87.10;;;;;;4887923;29;20461;-41
2021/11/05 05:27:25;;;;;;;8.30;6.40;;;7.00;87.10;;;;;;4888450;29;20480;-41
2021/11/05 05:29:51;;;;;;;9.87;6.97;;;7.00;87.20;;;;;;4886686;29;20477;-41
2021/11/05 05:32:18;;;;;;;11.13;7.83;;;7.00;87.40;;;;;;4868327;29;20957;-41
2021/11/05 05:34:45;;;;;;;11.20;7.13;;;7.00;87.50;;;;;;4876599;29;20462;-41
2021/11/05 05:37:12;;;;;;;10.00;7.63;;;7.00;87.50;;;;;;4886576;29;20520;-41
2021/11/05 05:39:39;;;;;;;8.43;6.97;;;7.00;87.70;;;;;;4872860;29;20498;-42
2021/11/05 05:42:06;;;;;;;10.60;6.80;;;7.00;87.60;;;;;;4874563;29;20931;-43
2021/11/05 05:44:34;;;;;;;9.63;7.37;;;7.10;87.60;;;;;;4873890;29;20563;-43
2021/11/05 05:47:02;;;;;;;12.90;7.57;;;7.00;87.70;;;;;;4887221;29;21032;-42
2021/11/05 05:49:29;;;;;;;12.50;8.43;;;7.00;87.70;;;;;;4884782;29;20535;-42
2021/11/05 05:51:56;;;;;;;11.13;7.80;;;7.00;87.70;;;;;;4876294;29;20478;-42
2021/11/05 05:54:23;;;;;;;13.67;8.90;;;7.00;87.60;;;;;;4872706;29;20465;-43
2021/11/05 05:56:50;;;;;;;13.57;9.13;;;7.00;87.80;;;;;;4887217;29;20493;-43
2021/11/05 05:59:19;;;;;;;12.70;7.87;;;7.00;87.80;;;;;;4872647;29;20461;-43
2021/11/05 06:01:46;;;;;;;11.80;9.27;;;7.00;87.90;;;;;;4885911;29;20668;-43
2021/11/05 06:04:13;;;;;;;15.87;9.03;;;7.00;87.80;;;;;;4870345;29;20545;-43
2021/11/05 06:06:40;;;;;;;14.97;9.10;;;7.00;87.90;;;;;;4870662;29;20525;-43
2021/11/05 06:09:07;;;;;;;11.80;8.60;;;7.00;87.90;;;;;;4886317;29;20465;-43
2021/11/05 06:11:34;;;;;;;17.10;9.90;;;7.00;88.00;;;;;;4889141;29;20961;-42
2021/11/05 06:14:04;;;;;;;14.23;8.93;;;7.00;88.20;;;;;;4890172;29;20477;-42
2021/11/05 06:16:30;;;;;;;14.43;8.90;;;7.00;88.20;;;;;;4904567;29;20576;-43
2021/11/05 06:18:59;;;;;;;13.33;8.90;;;7.10;88.20;;;;;;4903365;29;20552;-43
2021/11/05 06:21:26;;;;;;;13.40;8.93;;;7.10;88.00;;;;;;4903960;29;20473;-43
2021/11/05 06:23:53;;;;;;;12.80;9.50;;;7.10;88.00;;;;;;4903543;29;20529;-43
2021/11/05 06:26:20;;;;;;;16.57;10.63;;;7.10;87.80;;;;;;4902684;29;20500;-42
2021/11/05 06:28:49;;;;;;;25.47;10.53;;;7.10;87.90;;;;;;4906315;29;20476;-42
2021/11/05 06:31:16;;;;;;;14.87;10.23;;;7.10;88.20;;;;;;4898947;29;20466;-42
2021/11/05 06:33:43;;;;;;;15.57;10.80;;;7.10;88.20;;;;;;4900981;29;20472;-42
2021/11/05 06:36:10;;;;;;;18.10;11.80;;;7.20;87.80;;;;;;4873660;29;20477;-42
2021/11/05 06:38:37;;;;;;;15.67;10.60;;;7.10;87.90;;;;;;4888328;29;20463;-41
2021/11/05 06:41:04;;;;;;;19.77;9.93;;;7.10;88.20;;;;;;4888073;29;20532;-41
2021/11/05 06:43:31;;;;;;;17.90;11.60;;;7.10;88.30;;;;;;4887419;29;20824;-41
2021/11/05 06:45:58;;;;;;;18.20;12.03;;;7.10;88.50;;;;;;4886417;29;20516;-41
2021/11/05 06:48:25;;;;;;;17.60;11.90;;;7.10;88.50;;;;;;4885887;29;20516;-41
2021/11/05 06:50:57;;;;;;;18.40;10.93;;;7.10;88.50;;;;;;4887740;29;20518;-41
2021/11/05 06:53:24;;;;;;;18.70;11.60;;;7.10;88.60;;;;;;4887840;29;20941;-41
2021/11/05 06:55:51;;;;;;;19.43;11.30;;;7.20;88.60;;;;;;4887402;29;20489;-42
2021/11/05 06:58:18;;;;;;;19.23;12.50;;;7.20;88.60;;;;;;4886853;29;20480;-42
2021/11/05 07:00:48;;;;;;;22.73;13.40;;;7.10;88.80;;;;;;4886750;29;20977;-42
2021/11/05 07:03:16;;;;;;;20.13;12.97;;;7.10;88.80;;;;;;4887135;29;20477;-42
2021/11/05 07:05:43;;;;;;;18.77;11.97;;;7.20;89.00;;;;;;4871605;29;20503;-42
2021/11/05 07:08:10;;;;;;;19.90;12.17;;;7.20;89.00;;;;;;4871031;29;20473;-42
2021/11/05 07:10:37;;;;;;;18.87;11.17;;;7.20;88.80;;;;;;4887698;29;21005;-42
2021/11/05 07:13:04;;;;;;;20.70;12.83;;;7.20;88.80;;;;;;4886110;29;20493;-42
2021/11/05 07:15:31;;;;;;;21.23;13.40;;;7.20;89.00;;;;;;4887112;29;21037;-41
2021/11/05 07:17:58;;;;;;;23.70;13.37;;;7.20;89.00;;;;;;4873115;29;21005;-41
2021/11/05 07:20:25;;;;;;;28.70;13.17;;;7.20;89.10;;;;;;4887669;29;21011;-41
2021/11/05 07:22:51;;;;;;;18.93;12.53;;;7.30;89.10;;;;;;4885852;29;20469;-41
2021/11/05 07:25:18;;;;;;;22.73;12.50;;;7.40;89.00;;;;;;4887974;29;20467;-41
2021/11/05 07:27:45;;;;;;;20.83;13.50;;;7.40;88.90;;;;;;4884942;29;20482;-41
2021/11/05 07:30:13;;;;;;;20.10;12.37;;;7.40;88.90;;;;;;4890767;29;20469;-41
2021/11/05 07:32:45;;;;;;;25.80;15.50;;;7.50;88.90;;;;;;4890688;29;20480;-41
2021/11/05 07:35:14;;;;;;;26.80;14.90;;;7.60;88.40;;;;;;4877356;29;20981;-41
2021/11/05 07:37:41;;;;;;;32.20;15.60;;;7.60;88.40;;;;;;4889018;29;20472;-41
2021/11/05 07:40:08;;;;;;;25.00;15.13;;;7.60;88.50;;;;;;4870559;29;20465;-41
2021/11/05 07:42:36;;;;;;;25.97;16.07;;;7.60;88.70;;;;;;4888353;29;21040;-41
2021/11/05 07:45:08;;;;;;;24.60;15.20;;;7.60;88.70;;;;;;4889396;29;20977;-41
2021/11/05 07:47:35;;;;;;;26.07;16.53;;;7.70;88.60;;;;;;4890659;29;20493;-41
2021/11/05 07:50:04;;;;;;;26.50;14.90;;;7.70;88.80;;;;;;4890219;29;20470;-41
2021/11/05 07:52:31;;;;;;;24.70;15.90;;;7.70;88.90;;;;;;4889177;29;20634;-41
2021/11/05 07:54:58;;;;;;;26.00;15.00;;;7.80;88.60;;;;;;4891265;29;20476;-41
2021/11/05 07:57:25;;;;;;;28.40;15.13;;;7.80;88.70;;;;;;4885622;29;20473;-41
2021/11/05 07:59:54;;;;;;;25.97;15.60;;;7.80;88.90;;;;;;4887865;29;21165;-41
2021/11/05 08:02:21;;;;;;;23.40;14.63;;;7.90;89.20;;;;;;4889745;29;21012;-42
2021/11/05 08:04:48;;;;;;;27.33;15.50;;;7.90;89.30;;;;;;4889142;29;21008;-41
2021/11/05 08:07:14;;;;;;;26.73;15.33;;;8.00;89.30;;;;;;4888987;29;20502;-41
2021/11/05 08:09:41;;;;;;;26.80;15.80;;;8.10;89.30;;;;;;4891935;29;20846;-41
2021/11/05 08:12:08;;;;;;;26.57;15.30;;;8.20;89.40;;;;;;4886463;29;20469;-42
2021/11/05 08:14:35;;;;;;;25.93;15.53;;;8.20;89.40;;;;;;4891245;29;20454;-41
2021/11/05 08:17:02;;;;;;;26.93;16.03;;;8.30;89.20;;;;;;4888887;29;20509;-41
2021/11/05 08:19:28;;;;;;;25.40;14.27;;;8.40;89.40;;;;;;4873799;29;20470;-41
2021/11/05 08:21:55;;;;;;;27.27;16.07;;;8.40;89.20;;;;;;4888536;29;21051;-41
2021/11/05 08:24:22;;;;;;;27.70;15.37;;;8.50;89.20;;;;;;4888389;29;20484;-41
2021/11/05 08:26:49;;;;;;;26.50;15.83;;;8.60;89.20;;;;;;4890132;29;20498;-41
2021/11/05 08:29:16;;;;;;;23.30;15.07;;;8.60;89.10;;;;;;4888998;29;20478;-41
2021/11/05 08:31:43;;;;;;;29.83;15.70;;;8.70;88.30;;;;;;4873918;29;20466;-41
2021/11/05 08:34:10;;;;;;;27.50;15.90;;;8.80;88.00;;;;;;4890654;29;20458;-41
2021/11/05 08:36:39;;;;;;;25.97;15.20;;;8.80;88.10;;;;;;4891555;29;20457;-41
2021/11/05 08:39:06;;;;;;;28.80;18.83;;;8.80;88.20;;;;;;4891263;29;20466;-41
2021/11/05 08:41:33;;;;;;;32.60;16.70;;;8.80;88.20;;;;;;4874455;29;21008;-41
2021/11/05 08:44:00;;;;;;;26.50;14.20;;;8.80;88.30;;;;;;4888947;29;20478;-41
2021/11/05 08:46:31;;;;;;;34.53;18.97;;;8.90;88.30;;;;;;4872935;29;21016;-41
2021/11/05 08:49:13;;;;;;;34.07;19.13;;;9.00;88.00;;;;;;4891021;29;20557;-41
2021/11/05 08:51:44;;;;;;;30.50;16.43;;;9.00;87.90;;;;;;4872836;29;20462;-41
2021/11/05 08:54:12;;;;;;;26.17;14.67;;;9.10;87.90;;;;;;4890148;29;20902;-41
2021/11/05 08:56:40;;;;;;;25.27;15.20;;;9.20;88.00;;;;;;4887254;29;20613;-42
2021/11/05 08:59:11;;;;;;;23.83;13.27;;;9.30;87.50;;;;;;4888504;29;20470;-42
2021/11/05 09:01:38;;;;;;;26.60;14.00;;;9.40;86.90;;;;;;4881574;29;20466;-41
2021/11/05 09:04:06;;;;;;;18.33;10.73;;;9.50;86.10;;;;;;4890174;29;20466;-41
2021/11/05 09:06:33;;;;;;;17.53;10.63;;;9.60;84.80;;;;;;4888906;29;20865;-42
2021/11/05 09:09:00;;;;;;;16.83;11.30;;;9.70;85.00;;;;;;4889198;29;20472;-41
2021/11/05 09:11:29;;;;;;;17.27;11.80;;;9.80;84.50;;;;;;4874635;29;20462;-41
2021/11/05 09:13:57;;;;;;;15.60;9.37;;;9.80;83.90;;;;;;4891840;29;20481;-41
2021/11/05 09:16:27;;;;;;;13.93;8.93;;;9.90;83.40;;;;;;4890671;29;20481;-41
2021/11/05 09:18:56;;;;;;;15.37;10.47;;;9.90;82.50;;;;;;4888123;29;21606;-41
2021/11/05 09:21:23;;;;;;;12.60;8.20;;;10.00;82.50;;;;;;4885557;29;20505;-42
2021/11/05 09:23:50;;;;;;;15.10;8.63;;;10.10;81.60;;;;;;4886383;29;20996;-42
2021/11/05 09:26:17;;;;;;;13.70;8.40;;;10.10;81.50;;;;;;4887783;29;20512;-41
2021/11/05 09:28:44;;;;;;;12.50;8.53;;;10.20;80.80;;;;;;4891117;29;20466;-41
2021/11/05 09:31:11;;;;;;;16.80;9.27;;;10.20;80.10;;;;;;4862267;29;20466;-41
2021/11/05 09:33:38;;;;;;;14.90;9.20;;;10.20;79.80;;;;;;4889973;29;20473;-41
2021/11/05 09:36:05;;;;;;;10.73;7.60;;;10.20;79.90;;;;;;4873764;29;20462;-41
2021/11/05 09:38:31;;;;;;;15.60;9.87;;;10.20;80.20;;;;;;4890713;29;20454;-42
2021/11/05 09:40:58;;;;;;;16.93;10.33;;;10.20;80.40;;;;;;4890351;29;20831;-41
2021/11/05 09:43:25;;;;;;;17.00;10.40;;;10.30;79.40;;;;;;4875627;29;20461;-41
2021/11/05 09:45:52;;;;;;;15.33;9.40;;;10.40;79.50;;;;;;4890355;29;20461;-41
2021/11/05 09:48:21;;;;;;;16.63;9.73;;;10.40;79.50;;;;;;4872639;29;20921;-41
2021/11/05 09:50:49;;;;;;;16.70;10.10;;;10.30;79.50;;;;;;4882261;29;20478;-41
2021/11/05 09:53:17;;;;;;;14.80;9.03;;;10.30;79.60;;;;;;4886492;29;20560;-41
2021/11/05 09:55:46;;;;;;;14.23;8.57;;;10.40;79.30;;;;;;4873942;29;20482;-41
2021/11/05 09:58:13;;;;;;;13.60;9.83;;;10.40;79.40;;;;;;4869529;29;20466;-41
2021/11/05 10:00:41;;;;;;;17.37;9.63;;;10.40;79.50;;;;;;4883429;29;20702;-41
2021/11/05 10:03:08;;;;;;;14.87;9.40;;;10.40;79.70;;;;;;4862647;29;20512;-42
2021/11/05 10:05:35;;;;;;;13.23;9.70;;;10.40;80.00;;;;;;4887996;29;20553;-41
2021/11/05 10:08:03;;;;;;;15.40;9.27;;;10.50;79.80;;;;;;4888301;29;20996;-41
2021/11/05 10:10:43;;;;;;;17.20;9.63;;;10.50;79.70;;;;;;4871772;29;20469;-42
2021/11/05 10:13:13;;;;;;;17.47;8.80;;;10.50;79.20;;;;;;4888731;29;20471;-42
2021/11/05 10:15:42;;;;;;;14.77;9.37;;;10.50;79.40;;;;;;4873425;29;20985;-41
2021/11/05 10:18:15;;;;;;;13.83;10.03;;;10.60;77.80;;;;;;4888381;29;20468;-41
2021/11/05 10:20:43;;;;;;;13.80;8.90;;;10.60;77.90;;;;;;4884987;29;20462;-41
2021/11/05 10:23:10;;;;;;;11.63;8.33;;;10.60;77.90;;;;;;4890120;29;20470;-42
2021/11/05 10:25:48;;;;;;;15.87;9.50;;;10.70;78.70;;;;;;4888928;29;20466;-42
2021/11/05 10:28:27;;;;;;;14.83;9.07;;;10.70;77.60;;;;;;4890403;29;21035;-42
2021/11/05 10:31:04;;;;;;;14.67;9.00;;;10.80;77.40;;;;;;4890176;29;20766;-42
2021/11/05 10:33:38;;;;;;;15.83;9.20;;;10.80;77.20;;;;;;4859035;29;20477;-41
2021/11/05 10:36:08;;;;;;;13.47;8.93;;;10.80;77.00;;;;;;4869201;29;21005;-42
2021/11/05 10:38:38;;;;;;;15.80;11.63;;;10.80;77.10;;;;;;4885231;29;20476;-42
2021/11/05 10:41:07;;;;;;;13.07;9.30;;;10.80;77.50;;;;;;4884125;29;21085;-42
2021/11/05 10:43:45;;;;;;;12.80;8.90;;;10.80;77.70;;;;;;4872726;29;20465;-42
2021/11/05 10:46:35;;;;;;;14.30;8.80;;;10.90;77.40;;;;;;4885317;29;20521;-42
2021/11/05 10:49:25;;;;;;;11.10;8.30;;;11.00;77.50;;;;;;4885530;29;20559;-42
2021/11/05 10:52:20;;;;;;;15.10;9.20;;;11.10;77.00;;;;;;4889583;29;20468;-42
2021/11/05 10:54:58;;;;;;;11.13;8.10;;;11.10;76.60;;;;;;4888926;29;20458;-42
2021/11/05 10:57:43;;;;;;;13.10;9.40;;;11.20;74.50;;;;;;4879758;29;20466;-42
2021/11/05 11:00:24;;;;;;;14.07;8.43;;;11.30;75.50;;;;;;4889473;29;20458;-42
2021/11/05 11:02:51;;;;;;;13.20;8.07;;;11.30;74.60;;;;;;4889602;29;20468;-41
2021/11/05 11:05:37;;;;;;;13.50;8.50;;;11.20;74.80;;;;;;4891393;29;20472;-41
2021/11/05 11:08:20;;;;;;;15.60;8.97;;;11.20;75.50;;;;;;4892484;29;20493;-41
2021/11/05 11:10:50;;;;;;;13.37;9.93;;;11.10;75.90;;;;;;4858611;29;20462;-41
2021/11/05 11:13:29;;;;;;;15.20;8.90;;;11.10;76.20;;;;;;4888095;29;20832;-41
2021/11/05 11:15:57;;;;;;;12.20;8.20;;;11.10;76.40;;;;;;4866025;29;20462;-41
2021/11/05 11:18:24;;;;;;;11.33;8.37;;;11.10;76.60;;;;;;4892258;29;20473;-42
2021/11/05 11:20:51;;;;;;;11.90;9.10;;;11.10;76.30;;;;;;4892132;29;20976;-41
2021/11/05 11:23:18;;;;;;;12.77;8.60;;;11.10;75.90;;;;;;4892662;29;20476;-41
2021/11/05 11:25:45;;;;;;;12.37;8.23;;;11.00;76.00;;;;;;4890707;29;21009;-42
2021/11/05 11:28:11;;;;;;;10.37;7.80;;;11.10;75.90;;;;;;4888552;29;20496;-42
2021/11/05 11:30:39;;;;;;;11.07;7.47;;;11.10;75.10;;;;;;4889698;29;20492;-42
2021/11/05 11:33:08;;;;;;;13.07;8.17;;;11.10;74.70;;;;;;4874286;29;20525;-42
2021/11/05 11:35:40;;;;;;;10.77;8.70;;;11.20;74.50;;;;;;4899266;29;20458;-41
2021/11/05 11:38:07;;;;;;;19.07;9.10;;;11.20;74.30;;;;;;4870935;29;20467;-41
2021/11/05 11:40:33;;;;;;;12.40;8.37;;;11.20;74.20;;;;;;4883838;29;20848;-42
2021/11/05 11:43:00;;;;;;;11.70;8.60;;;11.20;74.40;;;;;;4886518;29;21585;-42
2021/11/05 11:45:27;;;;;;;12.97;8.20;;;11.20;74.60;;;;;;4890425;29;20454;-41
2021/11/05 11:47:56;;;;;;;7.60;5.97;;;11.20;74.40;;;;;;4889874;29;20497;-43
2021/11/05 11:50:32;;;;;;;10.80;6.40;;;11.20;72.70;;;;;;4870154;29;20509;-42
2021/11/05 11:53:08;;;;;;;8.43;6.83;;;11.20;72.60;;;;;;4889594;29;20961;-42
2021/11/05 11:55:40;;;;;;;9.97;7.33;;;11.30;72.70;;;;;;4885294;29;20511;-42
2021/11/05 11:58:19;;;;;;;9.50;6.80;;;11.20;72.80;;;;;;4888718;29;20462;-42
2021/11/05 12:00:49;;;;;;;10.00;7.73;;;11.20;73.10;;;;;;4884534;29;20468;-42
2021/11/05 12:03:22;;;;;;;12.80;7.20;;;11.30;73.50;;;;;;4888850;29;20482;-42
2021/11/05 12:05:55;;;;;;;9.60;7.30;;;11.20;72.70;;;;;;4873792;29;21000;-42
2021/11/05 12:08:35;;;;;;;10.60;7.27;;;11.20;72.90;;;;;;4875885;29;20834;-42
2021/11/05 12:11:07;;;;;;;10.90;7.60;;;11.20;73.20;;;;;;4871346;29;20472;-42
2021/11/05 12:13:34;;;;;;;12.50;8.07;;;11.20;73.40;;;;;;4884879;29;20466;-42
2021/11/05 12:16:24;;;;;;;12.10;7.63;;;11.30;73.50;;;;;;4891000;29;20462;-42
2021/11/05 12:18:58;;;;;;;11.20;7.17;;;11.20;73.30;;;;;;4890067;29;20524;-42
2021/11/05 12:21:29;;;;;;;8.73;6.90;;;11.20;73.40;;;;;;4871524;29;20494;-42
2021/11/05 12:24:20;;;;;;;10.27;7.53;;;11.20;73.20;;;;;;4890645;29;20458;-42
2021/11/05 12:26:52;;;;;;;9.93;7.00;;;11.20;73.20;;;;;;4886692;29;20501;-42
2021/11/05 12:29:37;;;;;;;9.50;7.00;;;11.20;73.30;;;;;;4888364;29;20466;-42
2021/11/05 12:32:19;;;;;;;13.00;8.33;;;11.20;73.30;;;;;;4884820;29;20469;-42
2021/11/05 12:34:47;;;;;;;12.97;6.87;;;11.30;73.70;;;;;;4887520;29;20553;-42
2021/11/05 12:37:29;;;;;;;11.20;8.20;;;11.30;73.30;;;;;;4891319;29;20993;-42
2021/11/05 12:40:23;;;;;;;13.50;7.63;;;11.30;73.20;;;;;;4889624;29;20474;-42
2021/11/05 12:42:58;;;;;;;8.93;6.00;;;11.40;72.70;;;;;;4889993;29;20458;-42
2021/11/05 12:45:45;;;;;;;8.70;5.40;;;11.60;71.80;;;;;;4874184;29;20473;-42
2021/11/05 12:48:12;;;;;;;6.17;5.03;;;11.70;71.80;;;;;;4889715;29;20507;-42
2021/11/05 12:50:45;;;;;;;7.30;3.20;;;11.80;71.60;;;;;;4889799;29;20470;-42
2021/11/05 12:53:12;;;;;;;4.67;3.50;;;11.80;70.60;;;;;;4888666;29;20473;-41